createdAt,value
2018-10-11T00:00:02.108Z,17.04
2018-10-11T00:01:02.030Z,16.93
2018-10-11T00:02:01.977Z,17.04
2018-10-11T00:03:01.962Z,16.89
2018-10-11T00:04:01.914Z,16.94
2018-10-11T00:05:01.834Z,16.93
2018-10-11T00:06:01.786Z,16.93
2018-10-11T00:07:01.746Z,16.97
2018-10-11T00:08:01.689Z,16.84
2018-10-11T00:09:01.685Z,16.89
2018-10-11T00:10:01.597Z,16.84
2018-10-11T00:11:01.547Z,16.81
2018-10-11T00:12:01.500Z,16.84
2018-10-11T00:13:01.449Z,16.76
2018-10-11T00:14:01.439Z,16.79
2018-10-11T00:15:01.361Z,16.75
2018-10-11T00:16:01.337Z,16.83
2018-10-11T00:17:01.299Z,16.84
2018-10-11T00:18:01.213Z,16.90
2018-10-11T00:19:01.165Z,16.89
2018-10-11T00:20:01.132Z,16.93
2018-10-11T00:21:01.066Z,16.84
2018-10-11T00:22:01.065Z,16.79
2018-10-11T00:23:00.971Z,16.78
2018-10-11T00:24:00.924Z,16.84
2018-10-11T00:25:00.876Z,16.75
2018-10-11T00:26:00.858Z,16.78
2018-10-11T00:27:00.789Z,16.64
2018-10-11T00:28:00.732Z,16.61
2018-10-11T00:29:00.717Z,16.58
2018-10-11T00:30:00.639Z,16.61
2018-10-11T00:31:00.588Z,16.71
2018-10-11T00:32:00.544Z,16.71
2018-10-11T00:33:00.493Z,16.75
2018-10-11T00:34:00.474Z,16.83
2018-10-11T00:35:00.436Z,16.78
2018-10-11T00:36:00.355Z,16.76
2018-10-11T00:37:00.307Z,16.79
2018-10-11T00:38:00.251Z,16.75
2018-10-11T00:39:00.208Z,16.74
2018-10-11T00:40:00.194Z,16.78
2018-10-11T00:41:00.119Z,16.71
2018-10-11T00:42:00.064Z,16.71
2018-10-11T00:43:00.012Z,16.69
2018-10-11T00:43:59.964Z,16.81
2018-10-11T00:44:59.954Z,16.86
2018-10-11T00:45:59.873Z,16.69
2018-10-11T00:46:59.822Z,16.75
2018-10-11T00:47:59.775Z,16.71
2018-10-11T00:48:59.765Z,16.66
2018-10-11T00:49:59.675Z,16.61
2018-10-11T00:50:59.637Z,16.60
2018-10-11T00:51:59.581Z,16.65
2018-10-11T00:52:59.534Z,16.68
2018-10-11T00:53:59.530Z,16.64
2018-10-11T00:54:59.435Z,16.60
2018-10-11T00:55:59.386Z,16.51
2018-10-11T00:56:59.352Z,16.38
2018-10-11T00:57:59.294Z,16.43
2018-10-11T00:58:59.281Z,16.42
2018-10-11T00:59:59.195Z,16.38
2018-10-11T01:00:59.147Z,16.35
2018-10-11T01:01:59.130Z,16.33
2018-10-11T01:02:59.049Z,16.31
2018-10-11T01:03:59.014Z,16.29
2018-10-11T01:04:58.990Z,16.24
2018-10-11T01:05:58.907Z,16.16
2018-10-11T01:06:58.856Z,16.28
2018-10-11T01:07:58.842Z,16.20
2018-10-11T01:08:58.762Z,16.29
2018-10-11T01:09:58.731Z,16.20
2018-10-11T01:10:58.670Z,16.24
2018-10-11T01:11:58.622Z,16.28
2018-10-11T01:12:58.604Z,16.29
2018-10-11T01:13:58.522Z,16.29
2018-10-11T01:14:58.478Z,16.28
2018-10-11T01:15:58.468Z,16.23
2018-10-11T01:16:58.379Z,16.24
2018-10-11T01:17:58.328Z,16.20
2018-10-11T01:18:58.280Z,16.17
2018-10-11T01:19:58.250Z,16.20
2018-10-11T01:20:58.224Z,16.08
2018-10-11T01:21:58.137Z,16.21
2018-10-11T01:22:58.089Z,16.26
2018-10-11T01:23:58.040Z,16.20
2018-10-11T01:24:57.990Z,16.23
2018-10-11T01:25:57.978Z,16.23
2018-10-11T01:26:57.897Z,16.20
2018-10-11T01:27:57.851Z,16.15
2018-10-11T01:28:57.800Z,16.13
2018-10-11T01:29:57.782Z,16.09
2018-10-11T01:30:57.767Z,16.05
2018-10-11T01:31:57.653Z,16.09
2018-10-11T01:32:57.604Z,16.08
2018-10-11T01:33:57.562Z,16.02
2018-10-11T01:34:57.511Z,16.04
2018-10-11T01:35:57.497Z,16.02
2018-10-11T01:36:57.415Z,15.95
2018-10-11T01:37:57.364Z,15.97
2018-10-11T01:38:57.318Z,15.83
2018-10-11T01:39:57.306Z,15.83
2018-10-11T01:40:57.221Z,15.90
2018-10-11T01:41:57.205Z,15.86
2018-10-11T01:42:57.129Z,15.79
2018-10-11T01:43:57.077Z,15.83
2018-10-11T01:44:57.062Z,15.79
2018-10-11T01:45:56.979Z,15.75
2018-10-11T01:46:56.934Z,15.84
2018-10-11T01:47:56.884Z,15.80
2018-10-11T01:48:56.873Z,15.77
2018-10-11T01:49:56.786Z,15.75
2018-10-11T01:50:56.740Z,15.77
2018-10-11T01:51:56.797Z,15.82
2018-10-11T01:52:56.671Z,15.77
2018-10-11T01:53:56.590Z,15.83
2018-10-11T01:54:56.546Z,15.77
2018-10-11T01:55:56.498Z,15.79
2018-10-11T01:56:56.447Z,15.77
2018-10-11T01:57:56.431Z,15.77
2018-10-11T01:58:56.351Z,15.76
2018-10-11T01:59:56.303Z,15.68
2018-10-11T02:00:56.305Z,15.80
2018-10-11T02:01:56.203Z,15.72
2018-10-11T02:02:56.158Z,15.73
2018-10-11T02:03:56.111Z,15.68
2018-10-11T02:04:56.069Z,15.80
2018-10-11T02:05:56.055Z,15.72
2018-10-11T02:06:55.965Z,15.76
2018-10-11T02:07:55.920Z,15.62
2018-10-11T02:08:55.866Z,15.62
2018-10-11T02:09:55.815Z,15.70
2018-10-11T02:10:55.824Z,15.58
2018-10-11T02:11:55.719Z,15.49
2018-10-11T02:12:55.671Z,15.37
2018-10-11T02:13:55.623Z,15.40
2018-10-11T02:14:55.577Z,15.55
2018-10-11T02:15:55.573Z,15.58
2018-10-11T02:16:55.480Z,15.54
2018-10-11T02:17:55.432Z,15.51
2018-10-11T02:18:55.381Z,15.46
2018-10-11T02:19:55.334Z,15.36
2018-10-11T02:20:55.413Z,15.42
2018-10-11T02:21:55.240Z,15.43
2018-10-11T02:22:55.189Z,15.42
2018-10-11T02:23:55.140Z,15.51
2018-10-11T02:24:55.092Z,15.54
2018-10-11T02:25:55.071Z,15.62
2018-10-11T02:26:55.048Z,15.52
2018-10-11T02:27:54.949Z,15.49
2018-10-11T02:28:54.897Z,15.52
2018-10-11T02:29:54.848Z,15.52
2018-10-11T02:30:54.795Z,15.58
2018-10-11T02:31:54.836Z,15.67
2018-10-11T02:32:54.699Z,15.51
2018-10-11T02:33:54.650Z,15.52
2018-10-11T02:34:54.603Z,15.44
2018-10-11T02:35:54.585Z,15.44
2018-10-11T02:36:54.502Z,15.49
2018-10-11T02:37:54.456Z,15.49
2018-10-11T02:38:54.408Z,15.39
2018-10-11T02:39:54.361Z,15.40
2018-10-11T02:40:54.341Z,15.51
2018-10-11T02:41:54.278Z,15.43
2018-10-11T02:42:54.209Z,15.51
2018-10-11T02:43:54.164Z,15.44
2018-10-11T02:44:54.115Z,15.55
2018-10-11T02:45:54.095Z,15.57
2018-10-11T02:46:54.018Z,15.65
2018-10-11T02:47:53.964Z,15.52
2018-10-11T02:48:53.948Z,15.57
2018-10-11T02:49:53.873Z,15.52
2018-10-11T02:50:53.819Z,15.55
2018-10-11T02:51:53.776Z,15.64
2018-10-11T02:52:53.725Z,15.58
2018-10-11T02:53:53.712Z,15.52
2018-10-11T02:54:53.625Z,15.47
2018-10-11T02:55:53.576Z,15.52
2018-10-11T02:56:53.526Z,15.39
2018-10-11T02:57:53.515Z,15.43
2018-10-11T02:58:53.461Z,15.35
2018-10-11T02:59:53.378Z,15.39
2018-10-11T03:00:53.330Z,15.43
2018-10-11T03:01:53.282Z,15.37
2018-10-11T03:02:53.262Z,15.39
2018-10-11T03:03:53.181Z,15.35
2018-10-11T03:04:53.131Z,15.24
2018-10-11T03:05:53.120Z,15.24
2018-10-11T03:06:53.037Z,15.22
2018-10-11T03:07:52.988Z,15.21
2018-10-11T03:08:53.002Z,15.36
2018-10-11T03:09:52.889Z,15.39
2018-10-11T03:10:52.836Z,15.19
2018-10-11T03:11:52.792Z,15.24
2018-10-11T03:12:52.744Z,15.15
2018-10-11T03:13:52.721Z,15.06
2018-10-11T03:14:52.640Z,15.29
2018-10-11T03:15:52.592Z,15.42
2018-10-11T03:16:52.543Z,15.39
2018-10-11T03:17:52.513Z,15.39
2018-10-11T03:18:52.472Z,15.36
2018-10-11T03:19:52.397Z,15.37
2018-10-11T03:20:52.384Z,15.54
2018-10-11T03:21:52.295Z,15.65
2018-10-11T03:22:52.247Z,15.65
2018-10-11T03:23:52.229Z,15.62
2018-10-11T03:24:52.148Z,15.64
2018-10-11T03:25:52.133Z,15.54
2018-10-11T03:26:52.053Z,15.55
2018-10-11T03:27:52.003Z,15.51
2018-10-11T03:28:51.954Z,15.52
2018-10-11T03:29:51.937Z,15.55
2018-10-11T03:30:51.855Z,15.51
2018-10-11T03:31:51.810Z,15.44
2018-10-11T03:32:51.764Z,15.49
2018-10-11T03:33:51.706Z,15.40
2018-10-11T03:34:51.691Z,15.37
2018-10-11T03:35:51.608Z,15.42
2018-10-11T03:36:51.559Z,15.40
2018-10-11T03:37:51.513Z,15.40
2018-10-11T03:38:51.460Z,15.36
2018-10-11T03:39:51.437Z,15.31
2018-10-11T03:40:51.393Z,15.42
2018-10-11T03:41:51.315Z,15.40
2018-10-11T03:42:51.268Z,15.31
2018-10-11T03:43:51.220Z,15.22
2018-10-11T03:44:51.164Z,15.35
2018-10-11T03:45:51.162Z,15.37
2018-10-11T03:46:51.069Z,15.35
2018-10-11T03:47:51.027Z,15.25
2018-10-11T03:48:50.974Z,15.24
2018-10-11T03:49:50.925Z,15.18
2018-10-11T03:50:51.253Z,15.18
2018-10-11T03:51:50.936Z,15.15
2018-10-11T03:52:50.780Z,15.11
2018-10-11T03:53:50.746Z,15.28
2018-10-11T03:54:51.156Z,15.09
2018-10-11T03:55:50.690Z,15.21
2018-10-11T03:56:51.191Z,15.17
2018-10-11T03:57:50.523Z,15.11
2018-10-11T03:58:50.480Z,15.21
2018-10-11T03:59:50.446Z,15.22
2018-10-11T04:00:50.378Z,15.15
2018-10-11T04:01:50.371Z,15.17
2018-10-11T04:02:50.279Z,15.06
2018-10-11T04:03:50.229Z,15.04
2018-10-11T04:04:50.183Z,15.06
2018-10-11T04:05:50.130Z,15.03
2018-10-11T04:06:50.114Z,15.02
2018-10-11T04:07:50.035Z,15.02
2018-10-11T04:08:49.985Z,15.00
2018-10-11T04:09:49.965Z,14.99
2018-10-11T04:10:49.922Z,14.99
2018-10-11T04:11:49.834Z,14.91
2018-10-11T04:12:49.794Z,14.94
2018-10-11T04:13:49.741Z,14.94
2018-10-11T04:14:49.720Z,14.88
2018-10-11T04:15:49.693Z,14.94
2018-10-11T04:16:49.586Z,14.96
2018-10-11T04:17:49.539Z,15.04
2018-10-11T04:18:49.488Z,14.99
2018-10-11T04:19:49.444Z,14.94
2018-10-11T04:20:49.431Z,14.86
2018-10-11T04:21:49.337Z,14.92
2018-10-11T04:22:49.295Z,14.96
2018-10-11T04:23:49.241Z,15.02
2018-10-11T04:24:49.204Z,15.06
2018-10-11T04:25:49.186Z,15.04
2018-10-11T04:26:49.091Z,15.04
2018-10-11T04:27:49.051Z,15.09
2018-10-11T04:28:48.995Z,15.11
2018-10-11T04:29:48.946Z,15.11
2018-10-11T04:30:48.926Z,15.02
2018-10-11T04:31:48.847Z,15.03
2018-10-11T04:32:48.797Z,15.00
2018-10-11T04:33:48.787Z,15.07
2018-10-11T04:34:48.713Z,15.00
2018-10-11T04:35:48.655Z,15.00
2018-10-11T04:36:48.633Z,15.03
2018-10-11T04:37:48.547Z,15.07
2018-10-11T04:38:48.500Z,15.03
2018-10-11T04:39:48.492Z,15.06
2018-10-11T04:40:48.399Z,15.02
2018-10-11T04:41:48.356Z,15.02
2018-10-11T04:42:48.414Z,14.97
2018-10-11T04:43:48.256Z,14.86
2018-10-11T04:44:48.236Z,14.82
2018-10-11T04:45:48.153Z,14.86
2018-10-11T04:46:48.101Z,14.88
2018-10-11T04:47:48.093Z,14.84
2018-10-11T04:48:48.003Z,14.85
2018-10-11T04:49:47.957Z,14.88
2018-10-11T04:50:47.965Z,14.91
2018-10-11T04:51:47.859Z,14.86
2018-10-11T04:52:47.807Z,14.88
2018-10-11T04:53:47.759Z,14.86
2018-10-11T04:54:47.740Z,14.86
2018-10-11T04:55:47.688Z,15.00
2018-10-11T04:56:47.615Z,14.94
2018-10-11T04:57:47.599Z,14.96
2018-10-11T04:58:47.508Z,14.88
2018-10-11T04:59:47.514Z,14.89
2018-10-11T05:00:47.409Z,14.84
2018-10-11T05:01:47.363Z,14.85
2018-10-11T05:02:47.341Z,14.86
2018-10-11T05:03:47.261Z,14.79
2018-10-11T05:04:47.208Z,14.85
2018-10-11T05:05:47.159Z,14.78
2018-10-11T05:06:47.119Z,14.68
2018-10-11T05:07:47.095Z,14.63
2018-10-11T05:08:47.019Z,14.54
2018-10-11T05:09:47.002Z,14.51
2018-10-11T05:10:46.915Z,14.44
2018-10-11T05:11:46.864Z,14.41
2018-10-11T05:12:46.813Z,14.48
2018-10-11T05:13:46.796Z,14.55
2018-10-11T05:14:46.717Z,14.53
2018-10-11T05:15:46.667Z,14.50
2018-10-11T05:16:46.643Z,14.48
2018-10-11T05:17:46.563Z,14.50
2018-10-11T05:18:46.517Z,14.53
2018-10-11T05:19:46.467Z,14.58
2018-10-11T05:20:46.414Z,14.48
2018-10-11T05:21:46.410Z,14.55
2018-10-11T05:22:46.314Z,14.51
2018-10-11T05:23:46.266Z,14.58
2018-10-11T05:24:46.223Z,14.51
2018-10-11T05:25:46.168Z,14.45
2018-10-11T05:26:46.148Z,14.54
2018-10-11T05:27:46.066Z,14.54
2018-10-11T05:28:46.024Z,14.54
2018-10-11T05:29:46.004Z,14.53
2018-10-11T05:30:45.921Z,14.54
2018-10-11T05:31:45.868Z,14.66
2018-10-11T05:32:45.820Z,14.82
2018-10-11T05:33:45.778Z,14.81
2018-10-11T05:34:45.751Z,14.85
2018-10-11T05:35:45.670Z,14.85
2018-10-11T05:36:45.621Z,14.79
2018-10-11T05:37:45.568Z,14.69
2018-10-11T05:38:45.522Z,14.68
2018-10-11T05:39:45.504Z,14.54
2018-10-11T05:40:45.423Z,14.68
2018-10-11T05:41:45.376Z,14.65
2018-10-11T05:42:45.324Z,14.69
2018-10-11T05:43:45.271Z,14.63
2018-10-11T05:44:45.254Z,14.70
2018-10-11T05:45:45.175Z,14.69
2018-10-11T05:46:45.128Z,14.59
2018-10-11T05:47:45.071Z,14.63
2018-10-11T05:48:45.153Z,14.70
2018-10-11T05:49:44.979Z,14.70
2018-10-11T05:50:44.926Z,14.68
2018-10-11T05:51:44.886Z,14.77
2018-10-11T05:52:44.826Z,14.79
2018-10-11T05:53:44.805Z,14.82
2018-10-11T05:54:44.765Z,14.88
2018-10-11T05:55:44.674Z,14.73
2018-10-11T05:56:44.667Z,14.63
2018-10-11T05:57:44.574Z,14.54
2018-10-11T05:58:44.529Z,14.58
2018-10-11T05:59:44.514Z,14.63
2018-10-11T06:00:44.424Z,14.69
2018-10-11T06:01:44.376Z,14.60
2018-10-11T06:02:44.329Z,14.68
2018-10-11T06:03:44.275Z,14.69
2018-10-11T06:04:44.261Z,14.65
2018-10-11T06:05:44.206Z,14.59
2018-10-11T06:06:44.129Z,14.69
2018-10-11T06:07:44.077Z,14.69
2018-10-11T06:08:44.028Z,14.77
2018-10-11T06:09:43.978Z,14.66
2018-10-11T06:10:43.966Z,14.79
2018-10-11T06:11:43.879Z,14.73
2018-10-11T06:12:43.832Z,14.86
2018-10-11T06:13:43.780Z,14.86
2018-10-11T06:14:43.731Z,14.78
2018-10-11T06:15:43.713Z,14.79
2018-10-11T06:16:43.708Z,14.88
2018-10-11T06:17:43.637Z,14.84
2018-10-11T06:18:43.527Z,14.88
2018-10-11T06:19:43.478Z,14.86
2018-10-11T06:20:43.436Z,14.97
2018-10-11T06:21:43.411Z,14.97
2018-10-11T06:22:43.368Z,14.89
2018-10-11T06:23:43.282Z,14.89
2018-10-11T06:24:43.300Z,14.86
2018-10-11T06:25:43.190Z,14.91
2018-10-11T06:26:43.133Z,15.04
2018-10-11T06:27:43.125Z,15.03
2018-10-11T06:28:43.031Z,15.03
2018-10-11T06:29:42.983Z,15.15
2018-10-11T06:30:42.932Z,15.04
2018-10-11T06:31:42.893Z,15.06
2018-10-11T06:32:42.867Z,15.10
2018-10-11T06:33:42.789Z,15.03
2018-10-11T06:34:42.733Z,15.04
2018-10-11T06:35:42.724Z,15.07
2018-10-11T06:36:42.798Z,15.07
2018-10-11T06:37:42.595Z,15.06
2018-10-11T06:38:42.571Z,15.17
2018-10-11T06:39:42.492Z,15.15
2018-10-11T06:40:42.437Z,15.14
2018-10-11T06:41:42.409Z,15.18
2018-10-11T06:42:42.368Z,15.22
2018-10-11T06:43:42.320Z,15.22
2018-10-11T06:44:42.271Z,15.33
2018-10-11T06:45:42.192Z,15.42
2018-10-11T06:46:42.165Z,15.44
2018-10-11T06:47:42.125Z,15.57
2018-10-11T06:48:42.038Z,15.58
2018-10-11T06:49:42.024Z,15.70
2018-10-11T06:50:41.941Z,15.62
2018-10-11T06:51:41.891Z,15.67
2018-10-11T06:52:41.845Z,15.68
2018-10-11T06:53:41.792Z,15.84
2018-10-11T06:54:41.795Z,16.17
2018-10-11T06:55:41.720Z,16.74
2018-10-11T06:56:41.651Z,17.38
2018-10-11T06:57:41.603Z,17.87
2018-10-11T06:58:41.554Z,18.33
2018-10-11T06:59:41.532Z,18.52
2018-10-11T07:00:41.454Z,18.59
2018-10-11T07:01:41.443Z,18.71
2018-10-11T07:02:41.366Z,18.71
2018-10-11T07:03:41.314Z,18.80
2018-10-11T07:04:41.307Z,18.86
2018-10-11T07:05:41.657Z,18.96
2018-10-11T07:06:41.183Z,19.08
2018-10-11T07:07:41.138Z,19.34
2018-10-11T07:08:41.098Z,19.30
2018-10-11T07:09:41.086Z,19.49
2018-10-11T07:10:41.008Z,19.69
2018-10-11T07:11:40.963Z,19.36
2018-10-11T07:12:40.929Z,19.48
2018-10-11T07:13:40.918Z,19.54
2018-10-11T07:14:40.838Z,19.69
2018-10-11T07:15:40.801Z,19.89
2018-10-11T07:16:40.756Z,20.06
2018-10-11T07:17:40.722Z,20.11
2018-10-11T07:18:40.712Z,20.10
2018-10-11T07:19:40.637Z,20.24
2018-10-11T07:20:40.603Z,20.22
2018-10-11T07:21:40.690Z,20.24
2018-10-11T07:22:40.520Z,20.32
2018-10-11T07:23:40.485Z,20.36
2018-10-11T07:24:40.443Z,20.44
2018-10-11T07:25:40.435Z,20.62
2018-10-11T07:26:40.499Z,20.80
2018-10-11T07:27:40.334Z,20.55
2018-10-11T07:28:40.297Z,20.81
2018-10-11T07:29:40.255Z,21.18
2018-10-11T07:30:40.221Z,21.25
2018-10-11T07:31:40.221Z,21.52
2018-10-11T07:32:40.143Z,21.77
2018-10-11T07:33:40.105Z,21.72
2018-10-11T07:34:40.167Z,21.36
2018-10-11T07:35:40.039Z,21.36
2018-10-11T07:36:40.031Z,21.29
2018-10-11T07:37:39.967Z,21.21
2018-10-11T07:38:39.931Z,21.05
2018-10-11T07:39:39.891Z,21.14
2018-10-11T07:40:39.978Z,21.37
2018-10-11T07:41:39.829Z,21.40
2018-10-11T07:42:39.818Z,21.51
2018-10-11T07:43:39.751Z,21.52
2018-10-11T07:44:39.712Z,22.04
2018-10-11T07:45:39.675Z,22.10
2018-10-11T07:46:39.679Z,21.99
2018-10-11T07:47:39.614Z,22.02
2018-10-11T07:48:39.575Z,22.25
2018-10-11T07:49:39.569Z,22.04
2018-10-11T07:50:39.502Z,22.06
2018-10-11T07:51:39.468Z,22.48
2018-10-11T07:52:39.437Z,22.44
2018-10-11T07:53:39.396Z,22.28
2018-10-11T07:54:39.399Z,22.65
2018-10-11T07:55:39.329Z,23.12
2018-10-11T07:56:39.297Z,23.12
2018-10-11T07:57:39.265Z,23.43
2018-10-11T07:58:39.226Z,23.62
2018-10-11T07:59:39.226Z,23.61
2018-10-11T08:00:39.159Z,23.58
2018-10-11T08:01:39.222Z,23.25
2018-10-11T08:02:39.104Z,23.12
2018-10-11T08:03:39.130Z,22.62
2018-10-11T08:04:39.054Z,22.30
2018-10-11T08:05:38.987Z,22.28
2018-10-11T08:06:38.961Z,22.48
2018-10-11T08:07:38.978Z,22.11
2018-10-11T08:08:38.890Z,22.44
2018-10-11T08:09:38.883Z,22.65
2018-10-11T08:10:39.004Z,22.53
2018-10-11T08:11:38.799Z,22.32
2018-10-11T08:12:38.759Z,22.04
2018-10-11T08:13:38.780Z,22.08
2018-10-11T08:14:38.716Z,21.96
2018-10-11T08:15:38.654Z,22.04
2018-10-11T08:16:38.721Z,22.23
2018-10-11T08:17:38.984Z,22.32
2018-10-11T08:18:38.611Z,22.50
2018-10-11T08:19:38.560Z,22.26
2018-10-11T08:20:38.508Z,22.14
2018-10-11T08:21:38.475Z,22.22
2018-10-11T08:22:38.420Z,22.26
2018-10-11T08:23:38.380Z,22.20
2018-10-11T08:24:38.447Z,22.15
2018-10-11T08:25:38.708Z,22.57
2018-10-11T08:26:38.329Z,22.78
2018-10-11T08:27:38.248Z,22.60
2018-10-11T08:28:38.211Z,22.51
2018-10-11T08:29:38.241Z,22.53
2018-10-11T08:30:38.157Z,22.72
2018-10-11T08:31:38.130Z,22.78
2018-10-11T08:32:38.296Z,22.30
2018-10-11T08:33:38.041Z,22.35
2018-10-11T08:34:38.047Z,22.73
2018-10-11T08:35:37.971Z,22.65
2018-10-11T08:36:37.942Z,22.62
2018-10-11T08:37:37.990Z,22.65
2018-10-11T08:38:37.971Z,22.62
2018-10-11T08:39:37.870Z,22.84
2018-10-11T08:40:37.804Z,22.63
2018-10-11T08:41:37.767Z,22.62
2018-10-11T08:42:37.735Z,23.13
2018-10-11T08:43:37.709Z,23.65
2018-10-11T08:44:37.726Z,23.21
2018-10-11T08:45:37.651Z,23.08
2018-10-11T08:46:37.599Z,22.90
2018-10-11T08:47:37.594Z,22.51
2018-10-11T08:48:37.528Z,22.65
2018-10-11T08:49:37.527Z,22.87
2018-10-11T08:50:37.511Z,23.10
2018-10-11T08:51:37.547Z,22.96
2018-10-11T08:52:37.395Z,23.02
2018-10-11T08:53:37.396Z,23.25
2018-10-11T08:54:37.328Z,22.78
2018-10-11T08:55:37.374Z,22.48
2018-10-11T08:56:37.289Z,22.41
2018-10-11T08:57:37.224Z,22.55
2018-10-11T08:58:37.185Z,22.62
2018-10-11T08:59:37.186Z,22.94
2018-10-11T09:00:37.119Z,22.72
2018-10-11T09:01:37.115Z,22.66
2018-10-11T09:02:37.078Z,22.51
2018-10-11T09:03:37.127Z,22.32
2018-10-11T09:04:36.982Z,21.98
2018-10-11T09:05:36.983Z,22.35
2018-10-11T09:06:36.907Z,22.39
2018-10-11T09:07:36.907Z,22.53
2018-10-11T09:08:36.839Z,22.50
2018-10-11T09:09:36.838Z,22.60
2018-10-11T09:10:38.450Z,22.39
2018-10-11T09:11:36.730Z,22.51
2018-10-11T09:12:36.727Z,22.18
2018-10-11T09:13:36.662Z,22.11
2018-10-11T09:14:36.629Z,22.33
2018-10-11T09:15:36.590Z,22.50
2018-10-11T09:16:36.554Z,23.17
2018-10-11T09:17:36.549Z,23.15
2018-10-11T09:18:36.482Z,23.17
2018-10-11T09:19:36.445Z,23.05
2018-10-11T09:20:36.405Z,22.84
2018-10-11T09:21:36.372Z,22.91
2018-10-11T09:22:36.364Z,22.94
2018-10-11T09:23:36.317Z,23.37
2018-10-11T09:24:36.259Z,24.16
2018-10-11T09:25:36.222Z,24.32
2018-10-11T09:26:36.214Z,24.65
2018-10-11T09:27:36.442Z,25.13
2018-10-11T09:28:36.140Z,24.98
2018-10-11T09:29:36.072Z,24.51
2018-10-11T09:30:36.033Z,24.45
2018-10-11T09:31:36.002Z,24.40
2018-10-11T09:32:35.965Z,24.16
2018-10-11T09:33:35.953Z,23.93
2018-10-11T09:34:35.932Z,23.54
2018-10-11T09:35:35.881Z,23.59
2018-10-11T09:36:35.873Z,23.92
2018-10-11T09:37:35.771Z,23.95
2018-10-11T09:38:35.766Z,24.05
2018-10-11T09:39:35.699Z,23.86
2018-10-11T09:40:35.656Z,23.41
2018-10-11T09:41:35.620Z,23.39
2018-10-11T09:42:35.589Z,23.37
2018-10-11T09:43:35.576Z,23.81
2018-10-11T09:44:35.536Z,24.36
2018-10-11T09:45:35.466Z,24.66
2018-10-11T09:46:35.434Z,24.60
2018-10-11T09:47:35.406Z,24.48
2018-10-11T09:48:35.376Z,24.50
2018-10-11T09:49:35.342Z,24.40
2018-10-11T09:50:35.313Z,24.35
2018-10-11T09:51:35.238Z,24.84
2018-10-11T09:52:35.196Z,25.07
2018-10-11T09:53:35.162Z,25.01
2018-10-11T09:54:35.300Z,25.03
2018-10-11T09:55:35.110Z,25.13
2018-10-11T09:56:35.043Z,24.92
2018-10-11T09:57:35.034Z,24.86
2018-10-11T09:58:34.961Z,24.84
2018-10-11T09:59:34.922Z,24.43
2018-10-11T10:00:34.895Z,24.29
2018-10-11T10:01:34.845Z,24.35
2018-10-11T10:02:34.843Z,24.33
2018-10-11T10:03:34.765Z,24.36
2018-10-11T10:04:34.725Z,24.51
2018-10-11T10:05:34.696Z,24.65
2018-10-11T10:06:34.650Z,25.38
2018-10-11T10:07:34.640Z,25.40
2018-10-11T10:08:34.611Z,25.53
2018-10-11T10:09:34.527Z,25.75
2018-10-11T10:10:34.490Z,25.75
2018-10-11T10:11:34.480Z,25.59
2018-10-11T10:12:34.406Z,25.25
2018-10-11T10:13:34.403Z,25.23
2018-10-11T10:14:34.334Z,25.11
2018-10-11T10:15:34.312Z,24.99
2018-10-11T10:16:34.249Z,24.28
2018-10-11T10:17:34.210Z,24.21
2018-10-11T10:18:34.264Z,24.39
2018-10-11T10:19:34.132Z,24.50
2018-10-11T10:20:34.090Z,24.30
2018-10-11T10:21:34.072Z,23.96
2018-10-11T10:22:34.044Z,23.74
2018-10-11T10:23:34.007Z,23.56
2018-10-11T10:24:34.040Z,23.43
2018-10-11T10:25:33.927Z,23.12
2018-10-11T10:26:33.898Z,23.17
2018-10-11T10:27:33.969Z,23.03
2018-10-11T10:28:33.769Z,23.02
2018-10-11T10:29:33.728Z,23.31
2018-10-11T10:30:33.724Z,23.20
2018-10-11T10:31:33.647Z,23.31
2018-10-11T10:32:33.606Z,23.37
2018-10-11T10:33:33.566Z,23.40
2018-10-11T10:34:33.528Z,23.25
2018-10-11T10:35:33.526Z,23.12
2018-10-11T10:36:33.446Z,23.02
2018-10-11T10:37:33.404Z,22.83
2018-10-11T10:38:33.409Z,22.85
2018-10-11T10:39:33.327Z,22.80
2018-10-11T10:40:33.287Z,22.84
2018-10-11T10:41:33.247Z,23.05
2018-10-11T10:42:33.203Z,23.23
2018-10-11T10:43:33.199Z,23.12
2018-10-11T10:44:33.134Z,23.15
2018-10-11T10:45:33.086Z,23.34
2018-10-11T10:46:33.044Z,23.09
2018-10-11T10:47:33.006Z,23.09
2018-10-11T10:48:32.978Z,23.32
2018-10-11T10:49:32.916Z,23.40
2018-10-11T10:50:32.878Z,23.37
2018-10-11T10:51:32.838Z,23.17
2018-10-11T10:52:32.794Z,23.46
2018-10-11T10:53:32.794Z,23.65
2018-10-11T10:54:32.715Z,23.73
2018-10-11T10:55:32.674Z,23.63
2018-10-11T10:56:32.640Z,23.37
2018-10-11T10:57:32.590Z,23.46
2018-10-11T10:58:32.586Z,23.24
2018-10-11T10:59:32.546Z,23.17
2018-10-11T11:00:32.468Z,23.20
2018-10-11T11:01:32.427Z,23.17
2018-10-11T11:02:32.388Z,23.32
2018-10-11T11:03:32.404Z,23.25
2018-10-11T11:04:32.305Z,23.18
2018-10-11T11:05:32.268Z,23.18
2018-10-11T11:06:32.229Z,23.03
2018-10-11T11:07:32.184Z,23.03
2018-10-11T11:08:32.191Z,23.13
2018-10-11T11:09:32.107Z,23.10
2018-10-11T11:10:32.061Z,23.05
2018-10-11T11:11:32.024Z,23.02
2018-10-11T11:12:31.981Z,23.17
2018-10-11T11:13:31.974Z,23.18
2018-10-11T11:14:31.927Z,23.09
2018-10-11T11:15:31.865Z,23.21
2018-10-11T11:16:31.814Z,23.36
2018-10-11T11:17:31.774Z,23.39
2018-10-11T11:18:31.734Z,23.31
2018-10-11T11:19:31.732Z,23.41
2018-10-11T11:20:31.656Z,23.51
2018-10-11T11:21:31.644Z,23.48
2018-10-11T11:22:31.567Z,23.50
2018-10-11T11:23:31.536Z,23.76
2018-10-11T11:24:31.498Z,24.29
2018-10-11T11:25:31.479Z,24.55
2018-10-11T11:26:31.406Z,24.42
2018-10-11T11:27:31.367Z,24.03
2018-10-11T11:28:31.324Z,23.61
2018-10-11T11:29:31.283Z,23.46
2018-10-11T11:30:31.276Z,23.50
2018-10-11T11:31:31.204Z,23.47
2018-10-11T11:32:31.159Z,23.61
2018-10-11T11:33:31.118Z,23.73
2018-10-11T11:34:31.111Z,23.76
2018-10-11T11:35:31.042Z,23.95
2018-10-11T11:36:30.999Z,23.68
2018-10-11T11:37:30.998Z,23.58
2018-10-11T11:38:30.915Z,23.76
2018-10-11T11:39:30.909Z,23.74
2018-10-11T11:40:30.834Z,23.63
2018-10-11T11:41:30.794Z,23.58
2018-10-11T11:42:30.754Z,23.68
2018-10-11T11:43:30.713Z,23.96
2018-10-11T11:44:30.702Z,24.36
2018-10-11T11:45:30.632Z,24.73
2018-10-11T11:46:30.591Z,25.22
2018-10-11T11:47:30.589Z,25.62
2018-10-11T11:48:30.509Z,25.78
2018-10-11T11:49:30.567Z,25.75
2018-10-11T11:50:30.455Z,25.78
2018-10-11T11:51:30.387Z,26.09
2018-10-11T11:52:30.922Z,26.41
2018-10-11T11:53:30.330Z,26.73
2018-10-11T11:54:30.399Z,26.78
2018-10-11T11:55:30.285Z,26.29
2018-10-11T11:56:30.905Z,26.25
2018-10-11T11:57:30.147Z,26.18
2018-10-11T11:58:30.139Z,26.22
2018-10-11T11:59:30.068Z,26.48
2018-10-11T12:00:30.076Z,26.55
2018-10-11T12:01:30.037Z,26.21
2018-10-11T12:02:29.995Z,26.03
2018-10-11T12:03:29.950Z,26.26
2018-10-11T12:04:29.869Z,26.62
2018-10-11T12:05:29.950Z,26.77
2018-10-11T12:06:29.792Z,26.75
2018-10-11T12:07:29.749Z,26.83
2018-10-11T12:08:29.746Z,26.41
2018-10-11T12:09:29.673Z,26.13
2018-10-11T12:10:29.746Z,26.00
2018-10-11T12:11:29.640Z,26.07
2018-10-11T12:12:29.559Z,25.75
2018-10-11T12:13:29.517Z,25.68
2018-10-11T12:14:29.503Z,25.95
2018-10-11T12:15:29.429Z,26.28
2018-10-11T12:16:29.449Z,26.38
2018-10-11T12:17:29.353Z,26.55
2018-10-11T12:18:29.315Z,26.80
2018-10-11T12:19:29.469Z,26.93
2018-10-11T12:20:30.871Z,26.85
2018-10-11T12:21:29.193Z,26.58
2018-10-11T12:22:29.186Z,26.36
2018-10-11T12:23:29.144Z,26.74
2018-10-11T12:24:29.079Z,26.97
2018-10-11T12:25:29.035Z,27.20
2018-10-11T12:26:28.995Z,27.35
2018-10-11T12:27:28.998Z,27.52
2018-10-11T12:28:29.077Z,27.03
2018-10-11T12:29:28.881Z,26.90
2018-10-11T12:30:28.858Z,27.02
2018-10-11T12:31:28.807Z,27.05
2018-10-11T12:32:28.761Z,27.00
2018-10-11T12:33:28.758Z,26.66
2018-10-11T12:34:28.681Z,26.19
2018-10-11T12:35:28.644Z,25.96
2018-10-11T12:36:28.658Z,25.41
2018-10-11T12:37:28.565Z,25.13
2018-10-11T12:38:28.582Z,25.14
2018-10-11T12:39:28.557Z,24.92
2018-10-11T12:40:28.452Z,24.68
2018-10-11T12:41:28.416Z,24.57
2018-10-11T12:42:28.417Z,24.29
2018-10-11T12:43:28.334Z,24.28
2018-10-11T12:44:28.335Z,24.58
2018-10-11T12:45:28.251Z,24.96
2018-10-11T12:46:29.250Z,24.93
2018-10-11T12:47:28.172Z,24.80
2018-10-11T12:48:28.132Z,24.89
2018-10-11T12:49:28.267Z,24.63
2018-10-11T12:50:28.086Z,24.57
2018-10-11T12:51:28.012Z,24.21